MSA94S LIBD-LIPO
Flight info
| Callsign | MSA94S |
|---|---|
| Flight time | 1h 8m |
| Altitude | 18000 |
| Route | PISIP L612 VIE/N0458F360 DCT SUTOB/N0454F380 DCT UTENO DCT PELEG DCT PETAS Q95 BOA Y72 XUBKA |
| Aircraft | B738/M-SDE2E3FGHIRWXY/LB1 |
Departure
| Time | 2026-05-03 20:28 |
|---|---|
| Airport | Bari Karol Wojtyła International Airport (LIBD) |
Arrival
| Time | 2026-05-03 21:36 |
|---|---|
| Airport | Brescia Gabriele d'Annunzio Airport (LIPO) |
| Time | Latitude | Longitude | Altitude | Speed | Heading |
|---|---|---|---|---|---|
| 2026-05-03 20:15 | 41.13765 | 16.77031 | 132 ft | 0 kts | 183° |
| 2026-05-03 20:18 | 41.13768 | 16.77031 | 132 ft | 4 kts | 183° |
| 2026-05-03 20:19 | 41.13794 | 16.77029 | 127 ft | 3 kts | 176° |
| 2026-05-03 20:19 | 41.13806 | 16.77032 | 131 ft | 2 kts | 223° |
| 2026-05-03 20:19 | 41.13813 | 16.77043 | 132 ft | 2 kts | 241° |
| 2026-05-03 20:19 | 41.13816 | 16.77049 | 132 ft | 0 kts | 243° |
| 2026-05-03 20:24 | 41.13814 | 16.77043 | 132 ft | 4 kts | 244° |
| 2026-05-03 20:24 | 41.13786 | 16.76948 | 130 ft | 14 kts | 250° |
| 2026-05-03 20:25 | 41.13776 | 16.76818 | 131 ft | 15 kts | 298° |
| 2026-05-03 20:25 | 41.13868 | 16.76784 | 126 ft | 18 kts | 47° |
| 2026-05-03 20:25 | 41.13916 | 16.76942 | 121 ft | 19 kts | 70° |
| 2026-05-03 20:25 | 41.13966 | 16.77120 | 119 ft | 22 kts | 69° |
| 2026-05-03 20:26 | 41.14017 | 16.77298 | 120 ft | 19 kts | 69° |
| 2026-05-03 20:26 | 41.14088 | 16.77397 | 118 ft | 14 kts | 16° |
| 2026-05-03 20:26 | 41.14117 | 16.77408 | 116 ft | 0 kts | 16° |
| 2026-05-03 20:26 | 41.14156 | 16.77419 | 118 ft | 15 kts | 1° |
| 2026-05-03 20:27 | 41.14193 | 16.77268 | 116 ft | 32 kts | 248° |
| 2026-05-03 20:27 | 41.14036 | 16.76707 | 123 ft | 99 kts | 250° |
| 2026-05-03 20:27 | 41.13714 | 16.75592 | 144 ft | 157 kts | 250° |
| 2026-05-03 20:27 | 41.13290 | 16.74141 | 604 ft | 171 kts | 249° |
| 2026-05-03 20:28 | 41.12869 | 16.72663 | 1395 ft | 175 kts | 251° |
| 2026-05-03 20:28 | 41.12440 | 16.71121 | 2089 ft | 186 kts | 251° |
| 2026-05-03 20:28 | 41.11955 | 16.69386 | 2441 ft | 209 kts | 251° |
| 2026-05-03 20:28 | 41.11436 | 16.67543 | 2949 ft | 216 kts | 251° |
| 2026-05-03 20:29 | 41.10906 | 16.65670 | 3554 ft | 219 kts | 251° |
| 2026-05-03 20:29 | 41.10362 | 16.63754 | 4122 ft | 224 kts | 251° |
| 2026-05-03 20:29 | 41.09800 | 16.61777 | 4689 ft | 233 kts | 251° |
| 2026-05-03 20:29 | 41.09226 | 16.59755 | 5439 ft | 235 kts | 253° |
| 2026-05-03 20:30 | 41.09093 | 16.57625 | 6132 ft | 235 kts | 286° |
| 2026-05-03 20:30 | 41.09876 | 16.55763 | 6807 ft | 234 kts | 319° |
| 2026-05-03 20:30 | 41.11275 | 16.54747 | 7509 ft | 231 kts | 350° |
| 2026-05-03 20:30 | 41.12866 | 16.54812 | 8232 ft | 231 kts | 15° |
| 2026-05-03 20:31 | 41.14378 | 16.55557 | 8969 ft | 233 kts | 22° |
| 2026-05-03 20:31 | 41.15845 | 16.56429 | 9681 ft | 235 kts | 23° |
| 2026-05-03 20:31 | 41.17341 | 16.57322 | 10381 ft | 236 kts | 22° |
| 2026-05-03 20:31 | 41.18849 | 16.58206 | 11069 ft | 237 kts | 22° |
| 2026-05-03 20:32 | 41.20365 | 16.59083 | 11739 ft | 239 kts | 22° |
| 2026-05-03 20:32 | 41.21893 | 16.59963 | 12404 ft | 240 kts | 22° |
| 2026-05-03 20:32 | 41.23435 | 16.60839 | 13087 ft | 242 kts | 19° |
| 2026-05-03 20:32 | 41.25098 | 16.61282 | 13563 ft | 251 kts | 4° |
| 2026-05-03 20:33 | 41.26921 | 16.61428 | 13746 ft | 273 kts | 3° |
| 2026-05-03 20:33 | 41.28898 | 16.61570 | 13930 ft | 294 kts | 3° |
| 2026-05-03 20:33 | 41.31017 | 16.61728 | 14085 ft | 315 kts | 3° |
| 2026-05-03 20:33 | 41.33278 | 16.61906 | 14225 ft | 335 kts | 3° |
| 2026-05-03 20:34 | 41.35641 | 16.62100 | 14358 ft | 354 kts | 4° |
| 2026-05-03 20:34 | 41.38162 | 16.62313 | 14478 ft | 372 kts | 4° |
| 2026-05-03 20:34 | 41.40793 | 16.62540 | 14710 ft | 384 kts | 4° |
| 2026-05-03 20:34 | 41.43475 | 16.62772 | 15203 ft | 388 kts | 4° |
| 2026-05-03 20:35 | 41.46172 | 16.63006 | 15811 ft | 389 kts | 4° |
| 2026-05-03 20:35 | 41.48873 | 16.63232 | 16388 ft | 390 kts | 2° |
| 2026-05-03 20:35 | 41.51578 | 16.62798 | 16885 ft | 395 kts | 344° |
| 2026-05-03 20:35 | 41.54102 | 16.61286 | 17475 ft | 400 kts | 330° |
| 2026-05-03 20:36 | 41.56246 | 16.58905 | 18038 ft | 405 kts | 316° |
| 2026-05-03 20:36 | 41.58156 | 16.56083 | 18109 ft | 416 kts | 314° |
| 2026-05-03 20:36 | 41.60058 | 16.53130 | 18122 ft | 421 kts | 313° |
| 2026-05-03 20:36 | 41.61954 | 16.50149 | 18107 ft | 419 kts | 313° |
| 2026-05-03 20:37 | 41.63824 | 16.47220 | 18115 ft | 418 kts | 314° |
| 2026-05-03 20:37 | 41.65725 | 16.44267 | 18122 ft | 418 kts | 314° |
| 2026-05-03 20:37 | 41.67628 | 16.41332 | 18119 ft | 418 kts | 314° |
| 2026-05-03 20:37 | 41.69540 | 16.38396 | 18123 ft | 418 kts | 314° |
| 2026-05-03 20:38 | 41.71454 | 16.35463 | 18121 ft | 419 kts | 314° |
| 2026-05-03 20:38 | 41.73369 | 16.32529 | 18123 ft | 419 kts | 314° |
| 2026-05-03 20:38 | 41.75289 | 16.29585 | 18122 ft | 419 kts | 314° |
| 2026-05-03 20:38 | 41.77210 | 16.26636 | 18122 ft | 420 kts | 314° |
| 2026-05-03 20:39 | 41.79131 | 16.23682 | 18127 ft | 420 kts | 314° |
| 2026-05-03 20:39 | 41.81049 | 16.20730 | 18131 ft | 420 kts | 314° |
| 2026-05-03 20:39 | 41.82969 | 16.17772 | 18141 ft | 420 kts | 313° |
| 2026-05-03 20:39 | 41.84890 | 16.14811 | 18152 ft | 421 kts | 313° |
| 2026-05-03 20:40 | 41.86807 | 16.11850 | 18152 ft | 421 kts | 313° |
| 2026-05-03 20:40 | 41.88732 | 16.08877 | 18154 ft | 421 kts | 313° |
| 2026-05-03 20:40 | 41.90653 | 16.05907 | 18163 ft | 422 kts | 313° |
| 2026-05-03 20:40 | 41.92533 | 16.02880 | 18169 ft | 422 kts | 311° |
| 2026-05-03 20:41 | 41.94313 | 15.99803 | 18172 ft | 423 kts | 309° |
| 2026-05-03 20:41 | 41.96106 | 15.96602 | 18177 ft | 423 kts | 309° |
| 2026-05-03 20:41 | 41.97843 | 15.93474 | 18173 ft | 423 kts | 309° |
| 2026-05-03 20:41 | 41.99600 | 15.90310 | 18180 ft | 422 kts | 309° |
| 2026-05-03 20:42 | 42.01360 | 15.87152 | 18178 ft | 422 kts | 309° |
| 2026-05-03 20:42 | 42.03123 | 15.84003 | 18178 ft | 422 kts | 309° |
| 2026-05-03 20:42 | 42.04895 | 15.80844 | 18176 ft | 422 kts | 309° |
| 2026-05-03 20:42 | 42.06668 | 15.77685 | 18170 ft | 423 kts | 309° |
| 2026-05-03 20:43 | 42.08443 | 15.74524 | 18163 ft | 423 kts | 309° |
| 2026-05-03 20:43 | 42.10216 | 15.71365 | 18158 ft | 423 kts | 309° |
| 2026-05-03 20:43 | 42.11990 | 15.68201 | 18152 ft | 423 kts | 309° |
| 2026-05-03 20:43 | 42.13764 | 15.65034 | 18139 ft | 424 kts | 309° |
| 2026-05-03 20:44 | 42.14938 | 15.62937 | 18138 ft | 424 kts | 309° |
| 2026-05-03 20:44 | 42.16718 | 15.59753 | 18126 ft | 424 kts | 309° |
| 2026-05-03 20:44 | 42.19070 | 15.55539 | 18120 ft | 424 kts | 309° |
| 2026-05-03 20:44 | 42.20845 | 15.52357 | 18114 ft | 424 kts | 309° |
| 2026-05-03 20:45 | 42.22019 | 15.50250 | 18110 ft | 424 kts | 309° |
| 2026-05-03 20:45 | 42.23791 | 15.47066 | 18112 ft | 424 kts | 309° |
| 2026-05-03 20:45 | 42.26163 | 15.42799 | 18111 ft | 424 kts | 308° |
| 2026-05-03 20:45 | 42.27337 | 15.40686 | 18113 ft | 424 kts | 308° |
| 2026-05-03 20:46 | 42.29107 | 15.37495 | 18112 ft | 424 kts | 308° |
| 2026-05-03 20:46 | 42.30878 | 15.34300 | 18113 ft | 424 kts | 308° |
| 2026-05-03 20:46 | 42.32646 | 15.31106 | 18113 ft | 425 kts | 308° |
| 2026-05-03 20:46 | 42.34416 | 15.27906 | 18113 ft | 425 kts | 308° |
| 2026-05-03 20:47 | 42.36189 | 15.24697 | 18111 ft | 425 kts | 308° |
| 2026-05-03 20:47 | 42.37956 | 15.21495 | 18110 ft | 425 kts | 308° |
| 2026-05-03 20:47 | 42.39723 | 15.18291 | 18108 ft | 425 kts | 308° |
| 2026-05-03 20:47 | 42.41488 | 15.15085 | 18108 ft | 425 kts | 308° |
| 2026-05-03 20:48 | 42.43253 | 15.11878 | 18109 ft | 425 kts | 308° |
| 2026-05-03 20:48 | 42.45018 | 15.08666 | 18112 ft | 425 kts | 308° |
| 2026-05-03 20:48 | 42.46783 | 15.05450 | 18109 ft | 425 kts | 308° |
| 2026-05-03 20:48 | 42.48548 | 15.02232 | 18112 ft | 425 kts | 308° |
| 2026-05-03 20:49 | 42.50288 | 14.99055 | 18112 ft | 425 kts | 308° |
| 2026-05-03 20:49 | 42.52047 | 14.95841 | 18108 ft | 425 kts | 308° |
| 2026-05-03 20:49 | 42.53809 | 14.92618 | 18112 ft | 425 kts | 308° |
| 2026-05-03 20:49 | 42.55565 | 14.89401 | 18113 ft | 425 kts | 308° |
| 2026-05-03 20:50 | 42.57326 | 14.86173 | 18112 ft | 425 kts | 308° |
| 2026-05-03 20:50 | 42.59085 | 14.82944 | 18115 ft | 425 kts | 308° |
| 2026-05-03 20:50 | 42.60841 | 14.79717 | 18118 ft | 425 kts | 308° |
| 2026-05-03 20:50 | 42.62603 | 14.76476 | 18117 ft | 425 kts | 308° |
| 2026-05-03 20:51 | 42.64358 | 14.73244 | 18118 ft | 426 kts | 308° |
| 2026-05-03 20:51 | 42.66118 | 14.70000 | 18115 ft | 426 kts | 307° |
| 2026-05-03 20:51 | 42.67872 | 14.66763 | 18115 ft | 426 kts | 307° |
| 2026-05-03 20:51 | 42.69628 | 14.63520 | 18112 ft | 426 kts | 307° |
| 2026-05-03 20:52 | 42.71382 | 14.60274 | 18117 ft | 426 kts | 307° |
| 2026-05-03 20:52 | 42.73141 | 14.57018 | 18114 ft | 426 kts | 307° |
| 2026-05-03 20:52 | 42.74898 | 14.53763 | 18114 ft | 426 kts | 307° |
| 2026-05-03 20:52 | 42.76629 | 14.50552 | 18113 ft | 426 kts | 307° |
| 2026-05-03 20:53 | 42.78429 | 14.47345 | 18116 ft | 426 kts | 309° |
| 2026-05-03 20:53 | 42.80292 | 14.44207 | 18112 ft | 426 kts | 310° |
| 2026-05-03 20:53 | 42.82178 | 14.41092 | 18113 ft | 426 kts | 310° |
| 2026-05-03 20:53 | 42.84059 | 14.37990 | 18112 ft | 426 kts | 310° |
| 2026-05-03 20:54 | 42.85947 | 14.34859 | 18115 ft | 427 kts | 310° |
| 2026-05-03 20:54 | 42.89693 | 14.28586 | 18118 ft | 427 kts | 310° |
| 2026-05-03 20:54 | 42.91562 | 14.25437 | 18121 ft | 428 kts | 310° |
| 2026-05-03 20:55 | 42.93435 | 14.22271 | 18119 ft | 428 kts | 309° |
| 2026-05-03 20:55 | 42.95307 | 14.19101 | 18117 ft | 428 kts | 309° |
| 2026-05-03 20:55 | 42.97179 | 14.15927 | 18118 ft | 428 kts | 309° |
| 2026-05-03 20:55 | 42.99046 | 14.12761 | 18117 ft | 428 kts | 309° |
| 2026-05-03 20:56 | 43.00915 | 14.09585 | 18119 ft | 428 kts | 309° |
| 2026-05-03 20:56 | 43.02780 | 14.06414 | 18116 ft | 429 kts | 309° |
| 2026-05-03 20:56 | 43.04651 | 14.03230 | 18115 ft | 429 kts | 309° |
| 2026-05-03 20:56 | 43.06497 | 14.00086 | 18116 ft | 429 kts | 309° |
| 2026-05-03 20:57 | 43.08361 | 13.96907 | 18117 ft | 429 kts | 309° |
| 2026-05-03 20:57 | 43.10224 | 13.93726 | 18114 ft | 429 kts | 309° |
| 2026-05-03 20:57 | 43.12088 | 13.90540 | 18121 ft | 429 kts | 309° |
| 2026-05-03 20:57 | 43.13957 | 13.87342 | 18122 ft | 429 kts | 309° |
| 2026-05-03 20:58 | 43.15820 | 13.84150 | 18112 ft | 430 kts | 309° |
| 2026-05-03 20:58 | 43.17686 | 13.80952 | 18116 ft | 430 kts | 309° |
| 2026-05-03 20:58 | 43.19555 | 13.77743 | 18117 ft | 430 kts | 309° |
| 2026-05-03 20:58 | 43.21418 | 13.74541 | 18121 ft | 430 kts | 309° |
| 2026-05-03 20:59 | 43.23288 | 13.71325 | 18119 ft | 430 kts | 309° |
| 2026-05-03 20:59 | 43.25156 | 13.68104 | 18122 ft | 430 kts | 308° |
| 2026-05-03 20:59 | 43.26952 | 13.64822 | 18121 ft | 431 kts | 306° |
| 2026-05-03 20:59 | 43.28697 | 13.61470 | 18121 ft | 431 kts | 305° |
| 2026-05-03 21:00 | 43.30416 | 13.58100 | 18117 ft | 430 kts | 305° |
| 2026-05-03 21:00 | 43.31552 | 13.55862 | 18119 ft | 430 kts | 305° |
| 2026-05-03 21:00 | 43.33842 | 13.51360 | 18121 ft | 430 kts | 305° |
| 2026-05-03 21:00 | 43.35560 | 13.47996 | 18114 ft | 430 kts | 305° |
| 2026-05-03 21:01 | 43.37255 | 13.44685 | 18113 ft | 429 kts | 305° |
| 2026-05-03 21:01 | 43.38973 | 13.41335 | 18112 ft | 429 kts | 305° |
| 2026-05-03 21:01 | 43.40694 | 13.37981 | 18112 ft | 429 kts | 305° |
| 2026-05-03 21:01 | 43.42416 | 13.34626 | 18111 ft | 429 kts | 305° |
| 2026-05-03 21:02 | 43.44135 | 13.31271 | 18117 ft | 429 kts | 305° |
| 2026-05-03 21:02 | 43.45859 | 13.27905 | 18105 ft | 429 kts | 304° |
| 2026-05-03 21:02 | 43.47577 | 13.24546 | 18109 ft | 429 kts | 304° |
| 2026-05-03 21:02 | 43.49294 | 13.21183 | 18107 ft | 429 kts | 304° |
| 2026-05-03 21:03 | 43.51013 | 13.17815 | 18101 ft | 429 kts | 304° |
| 2026-05-03 21:03 | 43.52730 | 13.14445 | 18111 ft | 429 kts | 304° |
| 2026-05-03 21:03 | 43.54444 | 13.11077 | 18112 ft | 430 kts | 304° |
| 2026-05-03 21:03 | 43.56159 | 13.07704 | 18117 ft | 430 kts | 304° |
| 2026-05-03 21:04 | 43.57875 | 13.04325 | 18118 ft | 430 kts | 304° |
| 2026-05-03 21:04 | 43.59593 | 13.00937 | 18112 ft | 431 kts | 304° |
| 2026-05-03 21:04 | 43.61292 | 12.97583 | 18109 ft | 431 kts | 304° |
| 2026-05-03 21:04 | 43.63013 | 12.94181 | 18113 ft | 431 kts | 304° |
| 2026-05-03 21:05 | 43.64731 | 12.90784 | 18120 ft | 431 kts | 304° |
| 2026-05-03 21:05 | 43.66444 | 12.87391 | 18122 ft | 431 kts | 304° |
| 2026-05-03 21:05 | 43.68160 | 12.83988 | 18124 ft | 431 kts | 304° |
| 2026-05-03 21:05 | 43.69878 | 12.80577 | 18117 ft | 431 kts | 304° |
| 2026-05-03 21:06 | 43.71591 | 12.77171 | 18124 ft | 431 kts | 304° |
| 2026-05-03 21:06 | 43.73305 | 12.73760 | 18119 ft | 431 kts | 304° |
| 2026-05-03 21:06 | 43.74995 | 12.70394 | 18113 ft | 432 kts | 304° |
| 2026-05-03 21:06 | 43.76708 | 12.66976 | 18113 ft | 432 kts | 304° |
| 2026-05-03 21:07 | 43.78421 | 12.63558 | 18117 ft | 432 kts | 304° |
| 2026-05-03 21:07 | 43.80131 | 12.60137 | 18110 ft | 432 kts | 304° |
| 2026-05-03 21:07 | 43.81843 | 12.56710 | 18116 ft | 432 kts | 304° |
| 2026-05-03 21:07 | 43.83553 | 12.53284 | 18119 ft | 432 kts | 303° |
| 2026-05-03 21:08 | 43.85263 | 12.49852 | 18110 ft | 433 kts | 303° |
| 2026-05-03 21:08 | 43.86974 | 12.46415 | 18105 ft | 433 kts | 303° |
| 2026-05-03 21:08 | 43.88684 | 12.42975 | 18107 ft | 432 kts | 303° |
| 2026-05-03 21:08 | 43.90388 | 12.39546 | 18119 ft | 432 kts | 303° |
| 2026-05-03 21:09 | 43.92075 | 12.36146 | 18110 ft | 432 kts | 303° |
| 2026-05-03 21:09 | 43.93780 | 12.32703 | 18109 ft | 432 kts | 303° |
| 2026-05-03 21:09 | 43.95482 | 12.29264 | 18115 ft | 432 kts | 303° |
| 2026-05-03 21:09 | 43.97183 | 12.25823 | 18117 ft | 432 kts | 303° |
| 2026-05-03 21:10 | 43.98884 | 12.22380 | 18115 ft | 432 kts | 303° |
| 2026-05-03 21:10 | 44.00583 | 12.18936 | 18119 ft | 432 kts | 303° |
| 2026-05-03 21:10 | 44.02281 | 12.15487 | 18113 ft | 432 kts | 303° |
| 2026-05-03 21:10 | 44.03980 | 12.12035 | 18113 ft | 433 kts | 303° |
| 2026-05-03 21:11 | 44.05678 | 12.08578 | 18110 ft | 433 kts | 303° |
| 2026-05-03 21:11 | 44.07381 | 12.05108 | 18104 ft | 433 kts | 303° |
| 2026-05-03 21:11 | 44.09057 | 12.01691 | 18103 ft | 433 kts | 303° |
| 2026-05-03 21:11 | 44.10749 | 11.98235 | 18105 ft | 433 kts | 303° |
| 2026-05-03 21:12 | 44.12443 | 11.94770 | 18103 ft | 433 kts | 303° |
| 2026-05-03 21:12 | 44.14136 | 11.91304 | 18111 ft | 433 kts | 303° |
| 2026-05-03 21:12 | 44.15828 | 11.87836 | 18110 ft | 433 kts | 303° |
| 2026-05-03 21:12 | 44.17517 | 11.84370 | 18111 ft | 433 kts | 303° |
| 2026-05-03 21:13 | 44.19210 | 11.80894 | 18124 ft | 433 kts | 303° |
| 2026-05-03 21:13 | 44.20899 | 11.77419 | 18125 ft | 433 kts | 303° |
| 2026-05-03 21:13 | 44.22599 | 11.73960 | 18131 ft | 433 kts | 304° |
| 2026-05-03 21:13 | 44.24550 | 11.70746 | 18146 ft | 434 kts | 313° |
| 2026-05-03 21:14 | 44.26687 | 11.67765 | 18153 ft | 435 kts | 314° |
| 2026-05-03 21:14 | 44.28843 | 11.64787 | 18155 ft | 435 kts | 314° |
| 2026-05-03 21:14 | 44.30983 | 11.61785 | 18145 ft | 436 kts | 313° |
| 2026-05-03 21:14 | 44.33102 | 11.58760 | 18142 ft | 435 kts | 313° |
| 2026-05-03 21:15 | 44.35209 | 11.55726 | 18131 ft | 435 kts | 313° |
| 2026-05-03 21:15 | 44.37311 | 11.52680 | 18122 ft | 435 kts | 313° |
| 2026-05-03 21:15 | 44.39407 | 11.49640 | 18115 ft | 434 kts | 313° |
| 2026-05-03 21:15 | 44.41485 | 11.46642 | 18104 ft | 434 kts | 313° |
| 2026-05-03 21:16 | 44.43588 | 11.43618 | 18094 ft | 434 kts | 313° |
| 2026-05-03 21:16 | 44.45694 | 11.40587 | 18086 ft | 434 kts | 313° |
| 2026-05-03 21:16 | 44.47793 | 11.37560 | 18077 ft | 433 kts | 313° |
| 2026-05-03 21:16 | 44.49901 | 11.34521 | 18076 ft | 433 kts | 313° |
| 2026-05-03 21:17 | 44.52099 | 11.31649 | 18069 ft | 433 kts | 321° |
| 2026-05-03 21:17 | 44.53528 | 11.30262 | 18060 ft | 428 kts | 328° |
| 2026-05-03 21:17 | 44.57003 | 11.27917 | 17718 ft | 414 kts | 340° |
| 2026-05-03 21:17 | 44.59754 | 11.26905 | 17445 ft | 405 kts | 346° |
| 2026-05-03 21:18 | 44.62508 | 11.26014 | 17211 ft | 409 kts | 346° |
| 2026-05-03 21:18 | 44.65306 | 11.25104 | 16966 ft | 414 kts | 346° |
| 2026-05-03 21:18 | 44.68107 | 11.24178 | 16713 ft | 413 kts | 346° |
| 2026-05-03 21:18 | 44.70891 | 11.23243 | 16467 ft | 409 kts | 346° |
| 2026-05-03 21:19 | 44.73648 | 11.22308 | 16046 ft | 406 kts | 345° |
| 2026-05-03 21:19 | 44.76375 | 11.21377 | 15509 ft | 402 kts | 345° |
| 2026-05-03 21:19 | 44.79084 | 11.20449 | 14966 ft | 398 kts | 345° |
| 2026-05-03 21:19 | 44.81764 | 11.19530 | 14413 ft | 395 kts | 345° |
| 2026-05-03 21:20 | 44.84432 | 11.18615 | 13835 ft | 393 kts | 345° |
| 2026-05-03 21:20 | 44.87047 | 11.17718 | 13239 ft | 391 kts | 345° |
| 2026-05-03 21:20 | 44.89678 | 11.16815 | 12649 ft | 388 kts | 345° |
| 2026-05-03 21:20 | 44.92294 | 11.15919 | 12071 ft | 385 kts | 345° |
| 2026-05-03 21:21 | 44.94891 | 11.15034 | 11499 ft | 382 kts | 345° |
| 2026-05-03 21:21 | 44.97446 | 11.14163 | 11259 ft | 371 kts | 345° |
| 2026-05-03 21:21 | 44.99918 | 11.13320 | 11089 ft | 359 kts | 345° |
| 2026-05-03 21:21 | 45.02313 | 11.12501 | 10918 ft | 348 kts | 345° |
| 2026-05-03 21:22 | 45.04623 | 11.11711 | 10834 ft | 335 kts | 345° |
| 2026-05-03 21:22 | 45.06844 | 11.10950 | 10749 ft | 323 kts | 345° |
| 2026-05-03 21:22 | 45.08994 | 11.10214 | 10673 ft | 312 kts | 345° |
| 2026-05-03 21:22 | 45.11073 | 11.09372 | 10227 ft | 312 kts | 333° |
| 2026-05-03 21:23 | 45.12805 | 11.07547 | 9745 ft | 311 kts | 309° |
| 2026-05-03 21:23 | 45.13994 | 11.05045 | 9263 ft | 311 kts | 299° |
| 2026-05-03 21:23 | 45.15096 | 11.02378 | 8753 ft | 314 kts | 298° |
| 2026-05-03 21:23 | 45.16193 | 10.99690 | 8253 ft | 316 kts | 298° |
| 2026-05-03 21:24 | 45.17301 | 10.96991 | 7758 ft | 318 kts | 299° |
| 2026-05-03 21:24 | 45.18426 | 10.94284 | 7275 ft | 320 kts | 299° |
| 2026-05-03 21:24 | 45.19565 | 10.91555 | 6791 ft | 322 kts | 299° |
| 2026-05-03 21:24 | 45.20702 | 10.88839 | 6488 ft | 317 kts | 299° |
| 2026-05-03 21:25 | 45.21755 | 10.86176 | 6399 ft | 303 kts | 290° |
| 2026-05-03 21:25 | 45.22125 | 10.83328 | 6267 ft | 290 kts | 266° |
| 2026-05-03 21:25 | 45.21689 | 10.80589 | 6007 ft | 283 kts | 246° |
| 2026-05-03 21:25 | 45.20652 | 10.78271 | 5753 ft | 277 kts | 227° |
| 2026-05-03 21:26 | 45.19328 | 10.76307 | 5512 ft | 273 kts | 225° |
| 2026-05-03 21:26 | 45.18073 | 10.74316 | 5239 ft | 271 kts | 238° |
| 2026-05-03 21:26 | 45.17516 | 10.71819 | 5072 ft | 265 kts | 267° |
| 2026-05-03 21:26 | 45.17815 | 10.69307 | 5025 ft | 255 kts | 291° |
| 2026-05-03 21:27 | 45.18707 | 10.67240 | 5010 ft | 245 kts | 310° |
| 2026-05-03 21:27 | 45.19874 | 10.65525 | 4992 ft | 233 kts | 314° |
| 2026-05-03 21:27 | 45.21017 | 10.63955 | 4996 ft | 230 kts | 315° |
| 2026-05-03 21:27 | 45.22170 | 10.62380 | 5009 ft | 231 kts | 315° |
| 2026-05-03 21:28 | 45.23326 | 10.60776 | 5010 ft | 233 kts | 314° |
| 2026-05-03 21:28 | 45.24483 | 10.59155 | 5016 ft | 234 kts | 314° |
| 2026-05-03 21:28 | 45.25663 | 10.57493 | 4753 ft | 244 kts | 314° |
| 2026-05-03 21:28 | 45.26866 | 10.55791 | 4448 ft | 245 kts | 312° |
| 2026-05-03 21:29 | 45.27703 | 10.53724 | 4105 ft | 244 kts | 278° |
| 2026-05-03 21:29 | 45.27491 | 10.51399 | 3805 ft | 241 kts | 242° |
| 2026-05-03 21:29 | 45.26321 | 10.49788 | 3650 ft | 233 kts | 202° |
| 2026-05-03 21:29 | 45.24775 | 10.49588 | 3625 ft | 222 kts | 163° |
| 2026-05-03 21:30 | 45.23559 | 10.50795 | 3607 ft | 213 kts | 122° |
| 2026-05-03 21:30 | 45.23235 | 10.52771 | 3632 ft | 207 kts | 78° |
| 2026-05-03 21:30 | 45.23958 | 10.54413 | 3633 ft | 202 kts | 31° |
| 2026-05-03 21:30 | 45.25293 | 10.54778 | 3652 ft | 200 kts | 347° |
| 2026-05-03 21:31 | 45.26588 | 10.54187 | 3654 ft | 192 kts | 334° |
| 2026-05-03 21:31 | 45.27742 | 10.53289 | 3647 ft | 187 kts | 325° |
| 2026-05-03 21:31 | 45.28796 | 10.52211 | 3601 ft | 187 kts | 321° |
| 2026-05-03 21:31 | 45.29801 | 10.51000 | 3428 ft | 190 kts | 317° |
| 2026-05-03 21:32 | 45.30783 | 10.49757 | 3243 ft | 187 kts | 317° |
| 2026-05-03 21:32 | 45.31742 | 10.48534 | 3086 ft | 183 kts | 316° |
| 2026-05-03 21:32 | 45.32680 | 10.47314 | 2857 ft | 183 kts | 316° |
| 2026-05-03 21:32 | 45.33298 | 10.46498 | 2704 ft | 181 kts | 316° |
| 2026-05-03 21:33 | 45.34197 | 10.45293 | 2474 ft | 176 kts | 315° |
| 2026-05-03 21:33 | 45.35088 | 10.44077 | 2240 ft | 179 kts | 315° |
| 2026-05-03 21:33 | 45.35987 | 10.42840 | 1994 ft | 181 kts | 315° |
| 2026-05-03 21:33 | 45.36876 | 10.41603 | 1758 ft | 177 kts | 315° |
| 2026-05-03 21:34 | 45.37751 | 10.40376 | 1519 ft | 176 kts | 314° |
| 2026-05-03 21:34 | 45.38612 | 10.39159 | 1282 ft | 171 kts | 314° |
| 2026-05-03 21:34 | 45.39421 | 10.38014 | 1049 ft | 164 kts | 314° |
| 2026-05-03 21:34 | 45.40228 | 10.36863 | 667 ft | 167 kts | 312° |
| 2026-05-03 21:35 | 45.40987 | 10.35740 | 789 ft | 156 kts | 314° |
| 2026-05-03 21:35 | 45.41783 | 10.34654 | 487 ft | 160 kts | 312° |
| 2026-05-03 21:35 | 45.42511 | 10.33595 | 349 ft | 148 kts | 312° |
| 2026-05-03 21:35 | 45.43134 | 10.32711 | 362 ft | 105 kts | 317° |
| 2026-05-03 21:36 | 45.43508 | 10.32197 | 365 ft | 63 kts | 315° |
| 2026-05-03 21:36 | 45.43713 | 10.31886 | 365 ft | 40 kts | 315° |
| 2026-05-03 21:36 | 45.43698 | 10.31656 | 364 ft | 30 kts | 201° |
| 2026-05-03 21:36 | 45.43517 | 10.31807 | 365 ft | 41 kts | 133° |
| 2026-05-03 21:37 | 45.43288 | 10.32152 | 362 ft | 44 kts | 135° |
| 2026-05-03 21:37 | 45.43106 | 10.32407 | 356 ft | 36 kts | 135° |
| 2026-05-03 21:37 | 45.42934 | 10.32533 | 355 ft | 23 kts | 180° |
| 2026-05-03 21:37 | 45.42821 | 10.32513 | 354 ft | 14 kts | 191° |
| 2026-05-03 21:38 | 45.42741 | 10.32537 | 357 ft | 12 kts | 145° |
| 2026-05-03 21:38 | 45.42730 | 10.32539 | 355 ft | 0 kts | 191° |